sensor_id;sensor_type;location;lat;lon;timestamp;P1;durP1;ratioP1;P2;durP2;ratioP2
3293;SDS011;1659;51.470;6.770;2023-05-15T00:02:18;38.03;;;18.97;;
3293;SDS011;1659;51.470;6.770;2023-05-15T00:04:44;40.47;;;21.00;;
3293;SDS011;1659;51.470;6.770;2023-05-15T00:07:11;47.87;;;20.90;;
3293;SDS011;1659;51.470;6.770;2023-05-15T00:09:39;36.23;;;19.63;;
3293;SDS011;1659;51.470;6.770;2023-05-15T00:12:05;40.07;;;20.63;;
3293;SDS011;1659;51.470;6.770;2023-05-15T00:14:32;38.10;;;19.23;;
3293;SDS011;1659;51.470;6.770;2023-05-15T00:16:59;42.77;;;20.10;;
3293;SDS011;1659;51.470;6.770;2023-05-15T00:19:25;37.53;;;19.97;;
3293;SDS011;1659;51.470;6.770;2023-05-15T00:21:52;36.43;;;19.70;;
3293;SDS011;1659;51.470;6.770;2023-05-15T00:24:20;37.90;;;18.93;;
3293;SDS011;1659;51.470;6.770;2023-05-15T00:26:48;36.87;;;20.83;;
3293;SDS011;1659;51.470;6.770;2023-05-15T00:29:14;40.13;;;20.03;;
3293;SDS011;1659;51.470;6.770;2023-05-15T00:31:41;38.70;;;20.37;;
3293;SDS011;1659;51.470;6.770;2023-05-15T00:34:07;39.73;;;20.53;;
3293;SDS011;1659;51.470;6.770;2023-05-15T00:36:34;42.23;;;20.60;;
3293;SDS011;1659;51.470;6.770;2023-05-15T00:39:01;40.23;;;20.63;;
3293;SDS011;1659;51.470;6.770;2023-05-15T00:41:27;41.83;;;21.30;;
3293;SDS011;1659;51.470;6.770;2023-05-15T00:43:58;39.37;;;20.87;;
3293;SDS011;1659;51.470;6.770;2023-05-15T00:46:26;46.40;;;20.87;;
3293;SDS011;1659;51.470;6.770;2023-05-15T00:48:53;40.23;;;20.43;;
3293;SDS011;1659;51.470;6.770;2023-05-15T00:51:21;39.77;;;20.67;;
3293;SDS011;1659;51.470;6.770;2023-05-15T00:53:48;35.50;;;19.40;;
3293;SDS011;1659;51.470;6.770;2023-05-15T00:56:16;42.20;;;20.40;;
3293;SDS011;1659;51.470;6.770;2023-05-15T00:58:43;38.17;;;18.80;;
3293;SDS011;1659;51.470;6.770;2023-05-15T01:01:13;47.90;;;21.40;;
3293;SDS011;1659;51.470;6.770;2023-05-15T01:03:39;36.63;;;19.50;;
3293;SDS011;1659;51.470;6.770;2023-05-15T01:06:06;43.40;;;21.40;;
3293;SDS011;1659;51.470;6.770;2023-05-15T01:08:34;40.90;;;19.47;;
3293;SDS011;1659;51.470;6.770;2023-05-15T01:11:05;40.20;;;21.77;;
3293;SDS011;1659;51.470;6.770;2023-05-15T01:13:33;43.83;;;21.17;;
3293;SDS011;1659;51.470;6.770;2023-05-15T01:16:00;38.73;;;19.50;;
3293;SDS011;1659;51.470;6.770;2023-05-15T01:18:28;45.23;;;20.20;;
3293;SDS011;1659;51.470;6.770;2023-05-15T01:23:55;42.20;;;20.40;;
3293;SDS011;1659;51.470;6.770;2023-05-15T01:29:39;35.50;;;19.17;;
3293;SDS011;1659;51.470;6.770;2023-05-15T01:32:10;37.60;;;19.00;;
3293;SDS011;1659;51.470;6.770;2023-05-15T01:34:45;49.50;;;20.27;;
3293;SDS011;1659;51.470;6.770;2023-05-15T01:37:20;49.53;;;22.30;;
3293;SDS011;1659;51.470;6.770;2023-05-15T01:39:50;38.93;;;19.73;;
3293;SDS011;1659;51.470;6.770;2023-05-15T01:42:22;40.77;;;20.10;;
3293;SDS011;1659;51.470;6.770;2023-05-15T01:44:53;44.07;;;21.13;;
3293;SDS011;1659;51.470;6.770;2023-05-15T01:47:21;47.13;;;22.00;;
3293;SDS011;1659;51.470;6.770;2023-05-15T01:49:58;47.97;;;20.40;;
3293;SDS011;1659;51.470;6.770;2023-05-15T01:52:28;46.27;;;22.73;;
3293;SDS011;1659;51.470;6.770;2023-05-15T01:54:57;41.50;;;21.80;;
3293;SDS011;1659;51.470;6.770;2023-05-15T01:57:27;53.13;;;22.67;;
3293;SDS011;1659;51.470;6.770;2023-05-15T01:59:56;45.53;;;22.23;;
3293;SDS011;1659;51.470;6.770;2023-05-15T02:02:23;52.90;;;23.03;;
3293;SDS011;1659;51.470;6.770;2023-05-15T02:04:52;48.73;;;21.53;;
3293;SDS011;1659;51.470;6.770;2023-05-15T02:07:20;46.03;;;22.33;;
3293;SDS011;1659;51.470;6.770;2023-05-15T02:09:47;47.93;;;23.20;;
3293;SDS011;1659;51.470;6.770;2023-05-15T02:12:16;51.57;;;23.17;;
3293;SDS011;1659;51.470;6.770;2023-05-15T02:14:44;50.30;;;22.77;;
3293;SDS011;1659;51.470;6.770;2023-05-15T02:17:13;47.87;;;23.87;;
3293;SDS011;1659;51.470;6.770;2023-05-15T02:19:40;45.83;;;23.17;;
3293;SDS011;1659;51.470;6.770;2023-05-15T02:22:07;50.57;;;22.80;;
3293;SDS011;1659;51.470;6.770;2023-05-15T02:24:33;47.50;;;21.80;;
3293;SDS011;1659;51.470;6.770;2023-05-15T02:27:01;48.47;;;23.27;;
3293;SDS011;1659;51.470;6.770;2023-05-15T02:29:36;48.40;;;23.20;;
3293;SDS011;1659;51.470;6.770;2023-05-15T02:32:16;59.90;;;23.63;;
3293;SDS011;1659;51.470;6.770;2023-05-15T02:34:48;51.63;;;24.47;;
3293;SDS011;1659;51.470;6.770;2023-05-15T02:37:22;49.00;;;21.97;;
3293;SDS011;1659;51.470;6.770;2023-05-15T02:39:52;49.50;;;24.20;;
3293;SDS011;1659;51.470;6.770;2023-05-15T02:42:22;48.47;;;22.17;;
3293;SDS011;1659;51.470;6.770;2023-05-15T02:44:49;46.33;;;23.00;;
3293;SDS011;1659;51.470;6.770;2023-05-15T02:47:20;49.07;;;24.07;;
3293;SDS011;1659;51.470;6.770;2023-05-15T02:49:48;52.03;;;23.73;;
3293;SDS011;1659;51.470;6.770;2023-05-15T02:52:15;46.03;;;21.60;;
3293;SDS011;1659;51.470;6.770;2023-05-15T02:54:42;41.77;;;21.30;;
3293;SDS011;1659;51.470;6.770;2023-05-15T02:57:09;52.50;;;24.00;;
3293;SDS011;1659;51.470;6.770;2023-05-15T02:59:35;46.73;;;20.83;;
3293;SDS011;1659;51.470;6.770;2023-05-15T03:02:02;49.67;;;22.60;;
3293;SDS011;1659;51.470;6.770;2023-05-15T03:04:30;43.27;;;20.73;;
3293;SDS011;1659;51.470;6.770;2023-05-15T03:06:57;56.87;;;21.83;;
3293;SDS011;1659;51.470;6.770;2023-05-15T03:09:24;50.33;;;21.90;;
3293;SDS011;1659;51.470;6.770;2023-05-15T03:11:50;46.93;;;21.80;;
3293;SDS011;1659;51.470;6.770;2023-05-15T03:14:17;43.23;;;21.67;;
3293;SDS011;1659;51.470;6.770;2023-05-15T03:16:43;51.57;;;23.07;;
3293;SDS011;1659;51.470;6.770;2023-05-15T03:19:10;40.47;;;19.50;;
3293;SDS011;1659;51.470;6.770;2023-05-15T03:21:37;48.50;;;21.60;;
3293;SDS011;1659;51.470;6.770;2023-05-15T03:24:04;49.17;;;21.40;;
3293;SDS011;1659;51.470;6.770;2023-05-15T03:26:31;48.53;;;21.17;;
3293;SDS011;1659;51.470;6.770;2023-05-15T03:28:59;42.00;;;20.40;;
3293;SDS011;1659;51.470;6.770;2023-05-15T03:31:27;41.00;;;21.20;;
3293;SDS011;1659;51.470;6.770;2023-05-15T03:33:53;46.90;;;21.97;;
3293;SDS011;1659;51.470;6.770;2023-05-15T03:36:20;48.37;;;22.00;;
3293;SDS011;1659;51.470;6.770;2023-05-15T03:38:48;45.47;;;21.70;;
3293;SDS011;1659;51.470;6.770;2023-05-15T03:41:15;54.50;;;23.70;;
3293;SDS011;1659;51.470;6.770;2023-05-15T03:43:41;46.00;;;23.10;;
3293;SDS011;1659;51.470;6.770;2023-05-15T03:46:08;46.10;;;22.57;;
3293;SDS011;1659;51.470;6.770;2023-05-15T03:48:34;53.10;;;24.10;;
3293;SDS011;1659;51.470;6.770;2023-05-15T03:51:01;43.50;;;23.03;;
3293;SDS011;1659;51.470;6.770;2023-05-15T03:53:28;44.70;;;22.20;;
3293;SDS011;1659;51.470;6.770;2023-05-15T03:55:56;50.83;;;24.20;;
3293;SDS011;1659;51.470;6.770;2023-05-15T03:58:23;52.77;;;23.63;;
3293;SDS011;1659;51.470;6.770;2023-05-15T04:00:50;56.50;;;24.47;;
3293;SDS011;1659;51.470;6.770;2023-05-15T04:03:16;54.70;;;24.77;;
3293;SDS011;1659;51.470;6.770;2023-05-15T04:05:43;58.53;;;25.93;;
3293;SDS011;1659;51.470;6.770;2023-05-15T04:08:13;59.37;;;28.97;;
3293;SDS011;1659;51.470;6.770;2023-05-15T04:10:40;67.80;;;32.07;;
3293;SDS011;1659;51.470;6.770;2023-05-15T04:13:08;73.83;;;29.87;;
3293;SDS011;1659;51.470;6.770;2023-05-15T04:15:49;64.33;;;29.70;;
3293;SDS011;1659;51.470;6.770;2023-05-15T04:18:15;61.90;;;29.40;;
3293;SDS011;1659;51.470;6.770;2023-05-15T04:20:42;68.80;;;29.87;;
3293;SDS011;1659;51.470;6.770;2023-05-15T04:23:08;57.73;;;27.73;;
3293;SDS011;1659;51.470;6.770;2023-05-15T04:25:35;61.83;;;29.53;;
3293;SDS011;1659;51.470;6.770;2023-05-15T04:28:02;69.73;;;30.60;;
3293;SDS011;1659;51.470;6.770;2023-05-15T04:30:28;67.97;;;31.10;;
3293;SDS011;1659;51.470;6.770;2023-05-15T04:32:57;65.53;;;29.20;;
3293;SDS011;1659;51.470;6.770;2023-05-15T04:35:23;70.13;;;29.43;;
3293;SDS011;1659;51.470;6.770;2023-05-15T04:37:50;65.80;;;30.90;;
3293;SDS011;1659;51.470;6.770;2023-05-15T04:40:16;67.93;;;32.30;;
3293;SDS011;1659;51.470;6.770;2023-05-15T04:42:43;67.70;;;30.70;;
3293;SDS011;1659;51.470;6.770;2023-05-15T04:45:10;77.90;;;30.37;;
3293;SDS011;1659;51.470;6.770;2023-05-15T04:47:36;65.70;;;29.03;;
3293;SDS011;1659;51.470;6.770;2023-05-15T04:50:05;72.20;;;31.87;;
3293;SDS011;1659;51.470;6.770;2023-05-15T04:52:33;68.40;;;32.20;;
3293;SDS011;1659;51.470;6.770;2023-05-15T04:54:59;64.57;;;29.53;;
3293;SDS011;1659;51.470;6.770;2023-05-15T04:57:26;62.60;;;30.20;;
3293;SDS011;1659;51.470;6.770;2023-05-15T04:59:53;63.57;;;30.03;;
3293;SDS011;1659;51.470;6.770;2023-05-15T05:02:19;59.37;;;26.17;;
3293;SDS011;1659;51.470;6.770;2023-05-15T05:04:46;51.77;;;25.40;;
3293;SDS011;1659;51.470;6.770;2023-05-15T05:07:14;46.30;;;22.53;;
3293;SDS011;1659;51.470;6.770;2023-05-15T05:09:41;46.40;;;21.67;;
3293;SDS011;1659;51.470;6.770;2023-05-15T05:12:08;40.37;;;20.90;;
3293;SDS011;1659;51.470;6.770;2023-05-15T05:14:35;40.37;;;21.10;;
3293;SDS011;1659;51.470;6.770;2023-05-15T05:17:04;44.00;;;21.23;;
3293;SDS011;1659;51.470;6.770;2023-05-15T05:19:30;47.70;;;20.83;;
3293;SDS011;1659;51.470;6.770;2023-05-15T05:21:57;43.13;;;20.30;;
3293;SDS011;1659;51.470;6.770;2023-05-15T05:24:29;35.73;;;18.70;;
3293;SDS011;1659;51.470;6.770;2023-05-15T05:26:57;47.90;;;21.37;;
3293;SDS011;1659;51.470;6.770;2023-05-15T05:29:24;39.60;;;19.53;;
3293;SDS011;1659;51.470;6.770;2023-05-15T05:31:50;47.17;;;22.40;;
3293;SDS011;1659;51.470;6.770;2023-05-15T05:34:17;39.30;;;20.30;;
3293;SDS011;1659;51.470;6.770;2023-05-15T05:36:44;37.23;;;18.10;;
3293;SDS011;1659;51.470;6.770;2023-05-15T05:39:11;42.63;;;19.33;;
3293;SDS011;1659;51.470;6.770;2023-05-15T05:41:39;34.97;;;18.73;;
3293;SDS011;1659;51.470;6.770;2023-05-15T05:44:05;42.33;;;20.37;;
3293;SDS011;1659;51.470;6.770;2023-05-15T05:46:32;36.30;;;18.53;;
3293;SDS011;1659;51.470;6.770;2023-05-15T05:48:58;35.27;;;18.40;;
3293;SDS011;1659;51.470;6.770;2023-05-15T05:51:25;35.57;;;18.57;;
3293;SDS011;1659;51.470;6.770;2023-05-15T05:53:51;42.33;;;19.47;;
3293;SDS011;1659;51.470;6.770;2023-05-15T05:56:18;37.50;;;18.77;;
3293;SDS011;1659;51.470;6.770;2023-05-15T05:58:47;37.50;;;19.20;;
3293;SDS011;1659;51.470;6.770;2023-05-15T06:01:13;37.90;;;18.80;;
3293;SDS011;1659;51.470;6.770;2023-05-15T06:03:41;37.73;;;17.87;;
3293;SDS011;1659;51.470;6.770;2023-05-15T06:06:08;28.57;;;17.13;;
3293;SDS011;1659;51.470;6.770;2023-05-15T06:08:35;36.90;;;15.90;;
3293;SDS011;1659;51.470;6.770;2023-05-15T06:11:02;34.90;;;17.80;;
3293;SDS011;1659;51.470;6.770;2023-05-15T06:13:28;39.03;;;15.97;;
3293;SDS011;1659;51.470;6.770;2023-05-15T06:15:56;25.83;;;16.10;;
3293;SDS011;1659;51.470;6.770;2023-05-15T06:18:23;28.63;;;16.40;;
3293;SDS011;1659;51.470;6.770;2023-05-15T06:20:49;32.70;;;18.67;;
3293;SDS011;1659;51.470;6.770;2023-05-15T06:23:17;40.87;;;21.07;;
3293;SDS011;1659;51.470;6.770;2023-05-15T06:25:44;37.33;;;18.80;;
3293;SDS011;1659;51.470;6.770;2023-05-15T06:28:10;35.73;;;18.20;;
3293;SDS011;1659;51.470;6.770;2023-05-15T06:30:37;35.13;;;17.67;;
3293;SDS011;1659;51.470;6.770;2023-05-15T06:33:05;32.80;;;17.37;;
3293;SDS011;1659;51.470;6.770;2023-05-15T06:35:31;28.43;;;15.60;;
3293;SDS011;1659;51.470;6.770;2023-05-15T06:37:58;30.33;;;15.83;;
3293;SDS011;1659;51.470;6.770;2023-05-15T06:40:24;25.00;;;14.90;;
3293;SDS011;1659;51.470;6.770;2023-05-15T06:42:51;35.67;;;18.30;;
3293;SDS011;1659;51.470;6.770;2023-05-15T06:45:17;33.43;;;16.30;;
3293;SDS011;1659;51.470;6.770;2023-05-15T06:47:44;23.70;;;14.60;;
3293;SDS011;1659;51.470;6.770;2023-05-15T06:50:12;27.27;;;15.40;;
3293;SDS011;1659;51.470;6.770;2023-05-15T06:52:38;29.87;;;15.20;;
3293;SDS011;1659;51.470;6.770;2023-05-15T06:55:05;37.37;;;15.63;;
3293;SDS011;1659;51.470;6.770;2023-05-15T06:57:32;28.90;;;15.07;;
3293;SDS011;1659;51.470;6.770;2023-05-15T06:59:59;31.17;;;16.43;;
3293;SDS011;1659;51.470;6.770;2023-05-15T07:02:25;28.73;;;16.33;;
3293;SDS011;1659;51.470;6.770;2023-05-15T07:04:52;27.47;;;16.37;;
3293;SDS011;1659;51.470;6.770;2023-05-15T07:07:20;31.73;;;17.33;;
3293;SDS011;1659;51.470;6.770;2023-05-15T07:09:46;27.40;;;17.13;;
3293;SDS011;1659;51.470;6.770;2023-05-15T07:12:14;36.83;;;18.80;;
3293;SDS011;1659;51.470;6.770;2023-05-15T07:14:40;35.10;;;18.00;;
3293;SDS011;1659;51.470;6.770;2023-05-15T07:17:07;37.20;;;19.83;;
3293;SDS011;1659;51.470;6.770;2023-05-15T07:19:34;42.13;;;19.80;;
3293;SDS011;1659;51.470;6.770;2023-05-15T07:22:00;31.20;;;17.63;;
3293;SDS011;1659;51.470;6.770;2023-05-15T07:24:28;36.73;;;18.10;;
3293;SDS011;1659;51.470;6.770;2023-05-15T07:26:55;30.37;;;18.27;;
3293;SDS011;1659;51.470;6.770;2023-05-15T07:29:21;31.10;;;16.77;;
3293;SDS011;1659;51.470;6.770;2023-05-15T07:31:48;32.50;;;16.93;;
3293;SDS011;1659;51.470;6.770;2023-05-15T07:34:15;31.50;;;17.20;;
3293;SDS011;1659;51.470;6.770;2023-05-15T07:36:41;27.90;;;16.10;;
3293;SDS011;1659;51.470;6.770;2023-05-15T07:39:08;28.70;;;17.43;;
3293;SDS011;1659;51.470;6.770;2023-05-15T07:41:36;27.13;;;16.00;;
3293;SDS011;1659;51.470;6.770;2023-05-15T07:44:03;29.20;;;15.50;;
3293;SDS011;1659;51.470;6.770;2023-05-15T07:46:30;25.27;;;15.73;;
3293;SDS011;1659;51.470;6.770;2023-05-15T07:48:56;28.00;;;16.43;;
3293;SDS011;1659;51.470;6.770;2023-05-15T07:51:23;31.63;;;16.37;;
3293;SDS011;1659;51.470;6.770;2023-05-15T07:53:49;28.73;;;16.33;;
3293;SDS011;1659;51.470;6.770;2023-05-15T07:56:16;27.80;;;15.47;;
3293;SDS011;1659;51.470;6.770;2023-05-15T07:58:44;29.67;;;15.57;;
3293;SDS011;1659;51.470;6.770;2023-05-15T08:01:10;30.37;;;14.83;;
3293;SDS011;1659;51.470;6.770;2023-05-15T08:03:37;26.43;;;16.50;;
3293;SDS011;1659;51.470;6.770;2023-05-15T08:06:04;20.50;;;14.17;;
3293;SDS011;1659;51.470;6.770;2023-05-15T08:08:32;24.37;;;15.67;;
3293;SDS011;1659;51.470;6.770;2023-05-15T08:10:58;26.73;;;15.30;;
3293;SDS011;1659;51.470;6.770;2023-05-15T08:13:25;22.50;;;14.47;;
3293;SDS011;1659;51.470;6.770;2023-05-15T08:15:54;26.13;;;16.77;;
3293;SDS011;1659;51.470;6.770;2023-05-15T08:18:20;20.77;;;14.73;;
3293;SDS011;1659;51.470;6.770;2023-05-15T08:20:47;24.93;;;14.47;;
3293;SDS011;1659;51.470;6.770;2023-05-15T08:23:14;18.97;;;13.40;;
3293;SDS011;1659;51.470;6.770;2023-05-15T08:25:40;20.07;;;13.17;;
3293;SDS011;1659;51.470;6.770;2023-05-15T08:28:07;23.03;;;13.53;;
3293;SDS011;1659;51.470;6.770;2023-05-15T08:30:34;23.53;;;14.57;;
3293;SDS011;1659;51.470;6.770;2023-05-15T08:33:02;19.30;;;13.67;;
3293;SDS011;1659;51.470;6.770;2023-05-15T08:35:29;18.80;;;12.80;;
3293;SDS011;1659;51.470;6.770;2023-05-15T08:37:56;19.53;;;12.17;;
3293;SDS011;1659;51.470;6.770;2023-05-15T08:40:22;19.57;;;13.30;;
3293;SDS011;1659;51.470;6.770;2023-05-15T08:42:51;20.00;;;11.93;;
3293;SDS011;1659;51.470;6.770;2023-05-15T08:45:20;20.40;;;13.40;;
3293;SDS011;1659;51.470;6.770;2023-05-15T08:47:47;20.63;;;14.00;;
3293;SDS011;1659;51.470;6.770;2023-05-15T08:50:15;18.23;;;13.03;;
3293;SDS011;1659;51.470;6.770;2023-05-15T08:52:43;18.43;;;12.97;;
3293;SDS011;1659;51.470;6.770;2023-05-15T08:55:11;18.93;;;13.40;;
3293;SDS011;1659;51.470;6.770;2023-05-15T08:57:38;25.70;;;13.27;;
3293;SDS011;1659;51.470;6.770;2023-05-15T09:00:06;19.23;;;13.07;;
3293;SDS011;1659;51.470;6.770;2023-05-15T09:02:33;16.57;;;11.47;;
3293;SDS011;1659;51.470;6.770;2023-05-15T09:05:01;19.87;;;13.73;;
3293;SDS011;1659;51.470;6.770;2023-05-15T09:07:29;17.87;;;12.50;;
3293;SDS011;1659;51.470;6.770;2023-05-15T09:09:56;18.67;;;12.30;;
3293;SDS011;1659;51.470;6.770;2023-05-15T09:12:24;17.83;;;11.90;;
3293;SDS011;1659;51.470;6.770;2023-05-15T09:14:58;18.13;;;12.20;;
3293;SDS011;1659;51.470;6.770;2023-05-15T09:17:33;13.47;;;10.67;;
3293;SDS011;1659;51.470;6.770;2023-05-15T09:20:00;18.20;;;11.50;;
3293;SDS011;1659;51.470;6.770;2023-05-15T09:22:32;15.73;;;11.30;;
3293;SDS011;1659;51.470;6.770;2023-05-15T09:25:00;17.60;;;12.50;;
3293;SDS011;1659;51.470;6.770;2023-05-15T09:27:27;15.80;;;11.53;;
3293;SDS011;1659;51.470;6.770;2023-05-15T09:29:54;17.10;;;11.50;;
3293;SDS011;1659;51.470;6.770;2023-05-15T09:32:22;14.00;;;10.97;;
3293;SDS011;1659;51.470;6.770;2023-05-15T09:34:52;17.60;;;10.73;;
3293;SDS011;1659;51.470;6.770;2023-05-15T09:37:30;16.23;;;11.00;;
3293;SDS011;1659;51.470;6.770;2023-05-15T09:40:08;15.80;;;11.87;;
3293;SDS011;1659;51.470;6.770;2023-05-15T09:42:35;18.30;;;11.70;;
3293;SDS011;1659;51.470;6.770;2023-05-15T09:45:03;21.40;;;11.67;;
3293;SDS011;1659;51.470;6.770;2023-05-15T09:47:30;16.40;;;11.70;;
3293;SDS011;1659;51.470;6.770;2023-05-15T09:49:57;19.00;;;11.57;;
3293;SDS011;1659;51.470;6.770;2023-05-15T09:52:23;16.37;;;11.83;;
3293;SDS011;1659;51.470;6.770;2023-05-15T09:54:51;17.93;;;11.90;;
3293;SDS011;1659;51.470;6.770;2023-05-15T09:57:20;17.53;;;12.30;;
3293;SDS011;1659;51.470;6.770;2023-05-15T09:59:48;14.27;;;10.83;;
3293;SDS011;1659;51.470;6.770;2023-05-15T10:02:21;13.60;;;10.47;;
3293;SDS011;1659;51.470;6.770;2023-05-15T10:04:52;15.30;;;10.33;;
3293;SDS011;1659;51.470;6.770;2023-05-15T10:07:26;14.87;;;11.10;;
3293;SDS011;1659;51.470;6.770;2023-05-15T10:09:54;20.23;;;11.57;;
3293;SDS011;1659;51.470;6.770;2023-05-15T10:12:21;15.03;;;11.90;;
3293;SDS011;1659;51.470;6.770;2023-05-15T10:14:49;15.40;;;12.20;;
3293;SDS011;1659;51.470;6.770;2023-05-15T10:17:16;12.00;;;10.70;;
3293;SDS011;1659;51.470;6.770;2023-05-15T10:19:45;16.20;;;11.73;;
3293;SDS011;1659;51.470;6.770;2023-05-15T10:22:14;15.43;;;11.90;;
3293;SDS011;1659;51.470;6.770;2023-05-15T10:24:44;16.87;;;12.30;;
3293;SDS011;1659;51.470;6.770;2023-05-15T10:27:15;17.00;;;12.13;;
3293;SDS011;1659;51.470;6.770;2023-05-15T10:29:43;15.60;;;11.07;;
3293;SDS011;1659;51.470;6.770;2023-05-15T10:32:10;16.77;;;12.07;;
3293;SDS011;1659;51.470;6.770;2023-05-15T10:34:39;12.00;;;9.50;;
3293;SDS011;1659;51.470;6.770;2023-05-15T10:37:05;14.67;;;10.50;;
3293;SDS011;1659;51.470;6.770;2023-05-15T10:39:33;13.93;;;11.57;;
3293;SDS011;1659;51.470;6.770;2023-05-15T10:42:03;13.27;;;11.30;;
3293;SDS011;1659;51.470;6.770;2023-05-15T10:44:32;13.17;;;10.57;;
3293;SDS011;1659;51.470;6.770;2023-05-15T10:46:59;13.90;;;10.60;;
3293;SDS011;1659;51.470;6.770;2023-05-15T10:49:26;11.97;;;9.83;;
3293;SDS011;1659;51.470;6.770;2023-05-15T10:51:53;10.97;;;9.87;;
3293;SDS011;1659;51.470;6.770;2023-05-15T10:54:20;16.90;;;10.77;;
3293;SDS011;1659;51.470;6.770;2023-05-15T10:56:47;15.53;;;10.50;;
3293;SDS011;1659;51.470;6.770;2023-05-15T10:59:14;11.33;;;9.37;;
3293;SDS011;1659;51.470;6.770;2023-05-15T11:01:42;12.23;;;9.70;;
3293;SDS011;1659;51.470;6.770;2023-05-15T11:04:09;14.57;;;9.13;;
3293;SDS011;1659;51.470;6.770;2023-05-15T11:06:37;14.63;;;10.60;;
3293;SDS011;1659;51.470;6.770;2023-05-15T11:12:06;13.50;;;10.97;;
3293;SDS011;1659;51.470;6.770;2023-05-15T11:14:35;11.97;;;9.50;;
3293;SDS011;1659;51.470;6.770;2023-05-15T11:17:05;15.50;;;10.00;;
3293;SDS011;1659;51.470;6.770;2023-05-15T11:19:33;11.60;;;9.73;;
3293;SDS011;1659;51.470;6.770;2023-05-15T11:22:19;10.90;;;9.63;;
3293;SDS011;1659;51.470;6.770;2023-05-15T11:24:47;13.20;;;9.33;;
3293;SDS011;1659;51.470;6.770;2023-05-15T11:27:17;19.33;;;10.50;;
3293;SDS011;1659;51.470;6.770;2023-05-15T11:32:42;16.17;;;11.87;;
3293;SDS011;1659;51.470;6.770;2023-05-15T11:35:23;16.60;;;12.43;;
3293;SDS011;1659;51.470;6.770;2023-05-15T11:37:52;14.03;;;10.00;;
3293;SDS011;1659;51.470;6.770;2023-05-15T11:40:21;13.37;;;10.80;;
3293;SDS011;1659;51.470;6.770;2023-05-15T11:43:00;14.17;;;11.33;;
3293;SDS011;1659;51.470;6.770;2023-05-15T11:45:29;17.20;;;11.70;;
3293;SDS011;1659;51.470;6.770;2023-05-15T11:47:58;15.17;;;10.30;;
3293;SDS011;1659;51.470;6.770;2023-05-15T11:50:26;18.90;;;11.00;;
3293;SDS011;1659;51.470;6.770;2023-05-15T11:52:53;13.07;;;11.47;;
3293;SDS011;1659;51.470;6.770;2023-05-15T11:55:20;16.47;;;11.60;;
3293;SDS011;1659;51.470;6.770;2023-05-15T11:57:47;10.57;;;9.20;;
3293;SDS011;1659;51.470;6.770;2023-05-15T12:00:14;15.60;;;9.97;;
3293;SDS011;1659;51.470;6.770;2023-05-15T12:02:41;12.10;;;8.40;;
3293;SDS011;1659;51.470;6.770;2023-05-15T12:05:09;13.77;;;9.70;;
3293;SDS011;1659;51.470;6.770;2023-05-15T12:07:36;12.33;;;9.97;;
3293;SDS011;1659;51.470;6.770;2023-05-15T12:10:04;12.50;;;9.27;;
3293;SDS011;1659;51.470;6.770;2023-05-15T12:12:31;11.40;;;9.40;;
3293;SDS011;1659;51.470;6.770;2023-05-15T12:15:01;11.90;;;9.10;;
3293;SDS011;1659;51.470;6.770;2023-05-15T12:17:30;13.80;;;9.77;;
3293;SDS011;1659;51.470;6.770;2023-05-15T12:19:56;12.63;;;10.37;;
3293;SDS011;1659;51.470;6.770;2023-05-15T12:22:26;15.13;;;10.40;;
3293;SDS011;1659;51.470;6.770;2023-05-15T12:24:52;15.77;;;11.73;;
3293;SDS011;1659;51.470;6.770;2023-05-15T12:27:23;15.37;;;11.40;;
3293;SDS011;1659;51.470;6.770;2023-05-15T12:29:50;15.37;;;12.07;;
3293;SDS011;1659;51.470;6.770;2023-05-15T12:32:17;19.23;;;11.27;;
3293;SDS011;1659;51.470;6.770;2023-05-15T12:34:44;16.30;;;11.70;;
3293;SDS011;1659;51.470;6.770;2023-05-15T12:37:11;18.10;;;10.80;;
3293;SDS011;1659;51.470;6.770;2023-05-15T12:39:49;19.07;;;12.10;;
3293;SDS011;1659;51.470;6.770;2023-05-15T12:42:16;18.57;;;12.37;;
3293;SDS011;1659;51.470;6.770;2023-05-15T12:44:43;18.60;;;13.07;;
3293;SDS011;1659;51.470;6.770;2023-05-15T12:47:12;18.33;;;11.87;;
3293;SDS011;1659;51.470;6.770;2023-05-15T12:49:39;17.47;;;11.30;;
3293;SDS011;1659;51.470;6.770;2023-05-15T12:52:07;20.30;;;12.43;;
3293;SDS011;1659;51.470;6.770;2023-05-15T12:54:37;15.90;;;10.97;;
3293;SDS011;1659;51.470;6.770;2023-05-15T12:57:06;11.03;;;9.83;;
3293;SDS011;1659;51.470;6.770;2023-05-15T12:59:33;18.97;;;11.80;;
3293;SDS011;1659;51.470;6.770;2023-05-15T13:02:00;18.60;;;12.00;;
3293;SDS011;1659;51.470;6.770;2023-05-15T13:04:27;11.03;;;9.03;;
3293;SDS011;1659;51.470;6.770;2023-05-15T13:06:53;10.40;;;8.70;;
3293;SDS011;1659;51.470;6.770;2023-05-15T13:09:20;15.23;;;10.60;;
3293;SDS011;1659;51.470;6.770;2023-05-15T13:11:47;12.80;;;9.73;;
3293;SDS011;1659;51.470;6.770;2023-05-15T13:14:17;18.77;;;12.90;;
3293;SDS011;1659;51.470;6.770;2023-05-15T13:16:43;18.93;;;15.17;;
3293;SDS011;1659;51.470;6.770;2023-05-15T13:19:11;27.87;;;17.30;;
3293;SDS011;1659;51.470;6.770;2023-05-15T13:21:38;26.03;;;18.37;;
3293;SDS011;1659;51.470;6.770;2023-05-15T13:24:05;28.10;;;19.27;;
3293;SDS011;1659;51.470;6.770;2023-05-15T13:26:33;24.57;;;17.20;;
3293;SDS011;1659;51.470;6.770;2023-05-15T13:29:00;24.10;;;16.40;;
3293;SDS011;1659;51.470;6.770;2023-05-15T13:31:28;23.23;;;15.40;;
3293;SDS011;1659;51.470;6.770;2023-05-15T13:33:54;25.13;;;17.83;;
3293;SDS011;1659;51.470;6.770;2023-05-15T13:36:21;25.67;;;17.13;;
3293;SDS011;1659;51.470;6.770;2023-05-15T13:38:48;20.43;;;14.97;;
3293;SDS011;1659;51.470;6.770;2023-05-15T13:41:14;19.83;;;15.00;;
3293;SDS011;1659;51.470;6.770;2023-05-15T13:43:41;20.93;;;15.10;;
3293;SDS011;1659;51.470;6.770;2023-05-15T13:46:07;23.80;;;15.47;;
3293;SDS011;1659;51.470;6.770;2023-05-15T13:48:35;21.33;;;15.47;;
3293;SDS011;1659;51.470;6.770;2023-05-15T13:51:02;20.40;;;12.77;;
3293;SDS011;1659;51.470;6.770;2023-05-15T13:53:28;17.30;;;13.57;;
3293;SDS011;1659;51.470;6.770;2023-05-15T13:55:55;18.03;;;13.70;;
3293;SDS011;1659;51.470;6.770;2023-05-15T13:58:21;17.03;;;12.10;;
3293;SDS011;1659;51.470;6.770;2023-05-15T14:00:50;21.10;;;14.03;;
3293;SDS011;1659;51.470;6.770;2023-05-15T14:03:17;18.33;;;14.07;;
3293;SDS011;1659;51.470;6.770;2023-05-15T14:05:44;25.50;;;15.67;;
3293;SDS011;1659;51.470;6.770;2023-05-15T14:08:11;18.50;;;12.90;;
3293;SDS011;1659;51.470;6.770;2023-05-15T14:10:37;21.47;;;14.87;;
3293;SDS011;1659;51.470;6.770;2023-05-15T14:13:04;19.63;;;13.70;;
3293;SDS011;1659;51.470;6.770;2023-05-15T14:15:31;22.60;;;14.70;;
3293;SDS011;1659;51.470;6.770;2023-05-15T14:17:57;21.53;;;14.80;;
3293;SDS011;1659;51.470;6.770;2023-05-15T14:20:24;28.50;;;14.93;;
3293;SDS011;1659;51.470;6.770;2023-05-15T14:22:52;19.00;;;13.90;;
3293;SDS011;1659;51.470;6.770;2023-05-15T14:25:18;21.53;;;13.70;;
3293;SDS011;1659;51.470;6.770;2023-05-15T14:27:45;23.30;;;12.97;;
3293;SDS011;1659;51.470;6.770;2023-05-15T14:30:11;23.27;;;13.60;;
3293;SDS011;1659;51.470;6.770;2023-05-15T14:32:38;26.67;;;13.93;;
3293;SDS011;1659;51.470;6.770;2023-05-15T14:35:05;25.67;;;15.87;;
3293;SDS011;1659;51.470;6.770;2023-05-15T14:37:32;25.50;;;16.50;;
3293;SDS011;1659;51.470;6.770;2023-05-15T14:40:00;26.93;;;17.20;;
3293;SDS011;1659;51.470;6.770;2023-05-15T14:42:28;29.87;;;17.87;;
3293;SDS011;1659;51.470;6.770;2023-05-15T14:44:55;27.07;;;15.97;;
3293;SDS011;1659;51.470;6.770;2023-05-15T14:47:21;20.00;;;14.43;;
3293;SDS011;1659;51.470;6.770;2023-05-15T14:49:49;21.60;;;13.80;;
3293;SDS011;1659;51.470;6.770;2023-05-15T14:52:15;21.30;;;13.90;;
3293;SDS011;1659;51.470;6.770;2023-05-15T14:54:42;21.93;;;13.57;;
3293;SDS011;1659;51.470;6.770;2023-05-15T14:57:10;21.30;;;13.10;;
3293;SDS011;1659;51.470;6.770;2023-05-15T14:59:36;24.80;;;14.10;;
3293;SDS011;1659;51.470;6.770;2023-05-15T15:02:03;20.97;;;13.17;;
3293;SDS011;1659;51.470;6.770;2023-05-15T15:04:30;18.73;;;11.70;;